Time;durP1;ratioP1;P1;durP2;ratioP2;P2;SDS_P1;SDS_P2;PMS_P1;PMS_P2;Temp;Humidity;BMP_temperature;BMP_pressure;BME280_temperature;BME280_humidity;BME280_pressure;Samples;Min_cycle;Max_cycle;Signal;HPM_P1;HPM_P2
2023/05/26 00:00:27;;;;;;;6.37;3.80;;;27.80;99.90;;;;;;6104242;23;20221;-94
2023/05/26 00:02:59;;;;;;;12.30;4.67;;;27.60;99.90;;;;;;6130071;23;20182;-95
2023/05/26 00:05:32;;;;;;;19.20;4.60;;;27.50;99.90;;;;;;6129945;23;20174;-95
2023/05/26 00:08:07;;;;;;;6.87;4.37;;;27.20;99.90;;;;;;6127638;23;20173;-96
2023/05/26 00:10:40;;;;;;;4.63;4.00;;;27.40;99.90;;;;;;6103914;23;20177;-89
2023/05/26 00:13:11;;;;;;;5.20;3.70;;;27.50;99.90;;;;;;6125675;23;20645;-92
2023/05/26 00:15:43;;;;;;;9.23;4.03;;;27.50;99.90;;;;;;6127584;23;20198;-94
2023/05/26 00:18:16;;;;;;;58.47;8.93;;;27.30;99.90;;;;;;6126090;23;20197;-95
2023/05/26 00:20:47;;;;;;;5.00;3.80;;;27.30;99.90;;;;;;6130370;23;20186;-90
2023/05/26 00:23:40;;;;;;;25.50;4.90;;;27.20;99.90;;;;;;6131468;23;20178;-92
2023/05/26 00:26:12;;;;;;;6.60;3.97;;;27.20;99.90;;;;;;6126497;23;20648;-94
2023/05/26 00:28:43;;;;;;;6.50;4.10;;;27.30;99.90;;;;;;6127580;23;20273;-95
2023/05/26 00:31:16;;;;;;;14.33;4.33;;;27.10;99.90;;;;;;6127522;23;20190;-95
2023/05/26 00:33:48;;;;;;;11.00;4.33;;;27.00;99.90;;;;;;6129188;23;20174;-96
2023/05/26 00:36:19;;;;;;;4.57;4.17;;;26.80;99.90;;;;;;6129538;23;20210;-94
2023/05/26 00:38:54;;;;;;;6.70;4.00;;;26.70;99.90;;;;;;6128141;23;20236;-95
2023/05/26 00:41:27;;;;;;;7.77;3.83;;;26.70;99.90;;;;;;6103609;23;20280;-95
2023/05/26 00:43:58;;;;;;;9.30;4.00;;;26.60;99.90;;;;;;6130795;23;20250;-95
2023/05/26 00:46:30;;;;;;;5.57;4.30;;;26.70;99.90;;;;;;6128351;23;20189;-96
2023/05/26 00:49:01;;;;;;;5.03;4.10;;;26.90;99.90;;;;;;6128128;23;20186;-95
2023/05/26 00:51:33;;;;;;;6.17;3.90;;;26.90;99.90;;;;;;6107131;23;20269;-94
2023/05/26 00:54:09;;;;;;;5.47;3.80;;;26.90;99.90;;;;;;6140036;23;20214;-93
2023/05/26 00:56:42;;;;;;;5.70;3.80;;;27.10;99.90;;;;;;6147588;23;20170;-96
2023/05/26 00:59:20;;;;;;;5.83;4.30;;;27.60;99.90;;;;;;6118338;23;20565;-95
2023/05/26 01:01:52;;;;;;;5.43;4.10;;;28.10;99.90;;;;;;6137382;23;20185;-96
2023/05/26 01:04:24;;;;;;;4.30;3.90;;;28.30;99.90;;;;;;6135929;23;20182;-95
2023/05/26 01:06:56;;;;;;;5.97;4.23;;;28.70;99.90;;;;;;6130813;23;20170;-95
2023/05/26 01:09:30;;;;;;;7.70;4.20;;;28.90;99.90;;;;;;6131433;23;20178;-93
2023/05/26 01:12:05;;;;;;;4.67;4.27;;;28.80;99.40;;;;;;6129346;23;20238;-95
2023/05/26 01:14:45;;;;;;;5.93;4.40;;;28.90;97.70;;;;;;6129228;23;20197;-95
2023/05/26 01:20:20;;;;;;;6.15;4.30;;;28.90;97.20;;;;;;6129881;23;20828;-94
2023/05/26 01:23:33;;;;;;;10.63;4.93;;;29.00;97.90;;;;;;6128815;23;20201;-96
2023/05/26 01:26:33;;;;;;;8.15;4.82;;;29.00;98.40;;;;;;6103567;23;20175;-94
2023/05/26 01:29:17;;;;;;;25.70;5.20;;;29.20;98.00;;;;;;6147063;23;20174;-93
2023/05/26 01:34:40;;;;;;;17.93;4.60;;;29.10;98.60;;;;;;6145452;23;20209;-95
2023/05/26 01:37:12;;;;;;;17.80;4.77;;;28.90;98.80;;;;;;6128337;23;20261;-95
2023/05/26 01:39:44;;;;;;;5.83;4.43;;;29.00;98.30;;;;;;6130591;23;20580;-95
2023/05/26 01:42:23;;;;;;;7.68;4.45;;;28.90;97.60;;;;;;6132447;23;20167;-94
2023/05/26 01:45:08;;;;;;;14.20;4.93;;;29.10;97.20;;;;;;6135742;23;20174;-95
2023/05/26 01:47:43;;;;;;;77.40;7.68;;;29.00;97.50;;;;;;6133595;23;20177;-92
2023/05/26 01:50:16;;;;;;;26.43;5.20;;;28.80;97.50;;;;;;6131663;23;20181;-95
2023/05/26 01:52:53;;;;;;;4.72;4.32;;;28.90;96.90;;;;;;6130525;23;20210;-96
2023/05/26 01:55:27;;;;;;;6.43;4.35;;;28.30;96.90;;;;;;6131179;23;20205;-96
2023/05/26 01:58:01;;;;;;;6.93;4.07;;;28.10;97.00;;;;;;6128884;23;20188;-96
2023/05/26 02:00:35;;;;;;;6.77;4.30;;;27.70;98.20;;;;;;6129947;23;20249;-94
2023/05/26 02:03:08;;;;;;;4.73;4.33;;;27.40;97.50;;;;;;6130496;23;20173;-96
2023/05/26 02:05:40;;;;;;;5.40;4.60;;;27.10;98.30;;;;;;6129995;23;20312;-95
2023/05/26 02:08:13;;;;;;;5.37;4.10;;;26.80;99.00;;;;;;6129383;23;20206;-96
2023/05/26 02:10:44;;;;;;;8.20;4.40;;;26.40;99.90;;;;;;6130692;23;20629;-95
2023/05/26 02:13:16;;;;;;;5.00;4.30;;;26.00;99.90;;;;;;6130213;23;20167;-95
2023/05/26 02:15:50;;;;;;;5.30;4.80;;;25.70;99.90;;;;;;6129390;23;20220;-95
2023/05/26 02:18:24;;;;;;;6.03;4.30;;;25.40;99.90;;;;;;6131525;23;20166;-95
2023/05/26 02:20:56;;;;;;;6.03;4.67;;;25.10;99.90;;;;;;6135146;23;20189;-95
2023/05/26 02:23:28;;;;;;;6.87;4.70;;;25.00;99.90;;;;;;6131248;23;20190;-95
2023/05/26 02:26:00;;;;;;;5.03;4.53;;;24.80;99.90;;;;;;6130920;23;20186;-93
2023/05/26 02:28:32;;;;;;;5.40;4.73;;;24.70;99.90;;;;;;6129826;23;20257;-94
2023/05/26 02:31:13;;;;;;;5.20;4.60;;;24.50;99.90;;;;;;6129429;23;20195;-94
2023/05/26 02:33:46;;;;;;;5.57;4.33;;;24.40;99.90;;;;;;6135836;23;20170;-95
2023/05/26 02:36:25;;;;;;;5.40;4.30;;;24.20;99.90;;;;;;6160654;23;20201;-95
2023/05/26 02:38:56;;;;;;;5.03;4.20;;;24.10;99.90;;;;;;6158937;23;20181;-95
2023/05/26 02:41:27;;;;;;;5.27;4.73;;;24.00;99.90;;;;;;6159765;23;20188;-94
2023/05/26 02:43:59;;;;;;;6.20;4.37;;;23.80;99.90;;;;;;6159092;23;20766;-94
2023/05/26 02:46:33;;;;;;;5.37;3.87;;;23.80;99.90;;;;;;6176136;23;20188;-95
2023/05/26 02:49:05;;;;;;;5.00;4.30;;;23.70;99.90;;;;;;6180682;23;20208;-94
2023/05/26 02:51:36;;;;;;;5.73;4.60;;;23.60;99.90;;;;;;6181238;23;20226;-94
2023/05/26 02:54:09;;;;;;;5.37;4.40;;;23.50;99.90;;;;;;6180605;23;20181;-94
2023/05/26 02:56:42;;;;;;;6.77;4.80;;;23.40;99.90;;;;;;6180609;23;20193;-96
2023/05/26 02:59:15;;;;;;;5.13;4.63;;;23.20;99.90;;;;;;6180897;23;20206;-93
2023/05/26 03:01:48;;;;;;;5.40;4.37;;;23.10;99.90;;;;;;6180642;23;20170;-95
2023/05/26 03:04:22;;;;;;;5.87;4.70;;;23.00;99.90;;;;;;6166086;23;20178;-94
2023/05/26 03:06:53;;;;;;;4.77;4.30;;;23.00;99.90;;;;;;6174207;23;20172;-95
2023/05/26 03:09:25;;;;;;;5.27;4.67;;;22.90;99.90;;;;;;6181193;23;20218;-95
2023/05/26 03:11:57;;;;;;;11.53;4.80;;;22.80;99.90;;;;;;6182994;23;20164;-94
2023/05/26 03:14:31;;;;;;;5.10;4.60;;;22.70;99.90;;;;;;6170458;23;20186;-96
2023/05/26 03:17:05;;;;;;;7.10;4.73;;;22.60;99.90;;;;;;6160592;23;20232;-95
2023/05/26 03:19:37;;;;;;;4.87;4.40;;;22.50;99.90;;;;;;6159023;23;20177;-94
2023/05/26 03:22:09;;;;;;;4.80;4.40;;;22.40;99.90;;;;;;6160158;23;20182;-94
2023/05/26 03:25:02;;;;;;;6.87;4.60;;;22.40;99.90;;;;;;6162664;23;20182;-95
2023/05/26 03:27:34;;;;;;;7.23;4.70;;;22.30;99.90;;;;;;6182111;23;20217;-94
2023/05/26 03:30:07;;;;;;;7.47;4.80;;;22.20;99.90;;;;;;6180514;23;20158;-94
2023/05/26 03:32:41;;;;;;;6.27;5.07;;;22.10;99.90;;;;;;6157096;23;20202;-95
2023/05/26 03:35:12;;;;;;;5.23;4.40;;;22.00;99.90;;;;;;6148931;23;20566;-94
2023/05/26 03:37:45;;;;;;;5.27;4.53;;;21.90;99.90;;;;;;6130429;23;20190;-94
2023/05/26 03:40:17;;;;;;;5.80;4.50;;;21.80;99.90;;;;;;6134041;23;20618;-94
2023/05/26 03:42:49;;;;;;;4.83;4.43;;;21.70;99.90;;;;;;6130402;23;20188;-95
2023/05/26 03:45:24;;;;;;;4.87;4.37;;;21.50;99.90;;;;;;6130369;23;20179;-95
2023/05/26 03:48:08;;;;;;;5.67;4.90;;;21.40;99.90;;;;;;6143793;23;20159;-89
2023/05/26 03:50:41;;;;;;;4.90;4.40;;;21.30;99.90;;;;;;6129833;23;20175;-91
2023/05/26 03:53:13;;;;;;;5.17;4.67;;;21.10;99.90;;;;;;6133157;23;20179;-91
2023/05/26 03:55:45;;;;;;;5.93;4.57;;;21.00;99.90;;;;;;6104345;23;20253;-91
2023/05/26 03:58:17;;;;;;;8.47;4.63;;;20.90;99.90;;;;;;6130433;23;20182;-91
2023/05/26 04:00:49;;;;;;;4.83;4.30;;;20.70;99.90;;;;;;6131491;23;20253;-89
2023/05/26 04:03:23;;;;;;;5.10;4.50;;;20.60;99.90;;;;;;6129979;23;20179;-90
2023/05/26 04:05:55;;;;;;;7.53;5.10;;;20.50;99.90;;;;;;6132204;23;20684;-91
2023/05/26 04:08:26;;;;;;;5.50;5.00;;;20.40;99.90;;;;;;6141270;23;20178;-89
2023/05/26 04:10:58;;;;;;;8.80;5.50;;;20.20;99.90;;;;;;6133435;23;20234;-90
2023/05/26 04:13:29;;;;;;;6.87;5.13;;;20.10;99.90;;;;;;6135990;23;20232;-92
2023/05/26 04:16:01;;;;;;;7.97;4.93;;;20.00;99.90;;;;;;6134783;23;20265;-89
2023/05/26 04:18:36;;;;;;;8.47;5.13;;;19.90;99.90;;;;;;6139398;23;20189;-91
2023/05/26 04:21:07;;;;;;;7.10;4.80;;;19.80;99.90;;;;;;6140844;23;20234;-90
2023/05/26 04:23:39;;;;;;;5.10;4.60;;;19.80;99.90;;;;;;6138653;23;20205;-91
2023/05/26 04:26:10;;;;;;;8.80;5.73;;;19.70;99.90;;;;;;6131021;23;20257;-91
2023/05/26 04:28:42;;;;;;;5.20;4.70;;;19.60;99.90;;;;;;6129222;23;20182;-92
2023/05/26 04:31:16;;;;;;;5.23;4.73;;;19.60;99.90;;;;;;6128902;23;20194;-91
2023/05/26 04:33:50;;;;;;;5.63;4.93;;;19.50;99.90;;;;;;6130284;23;20249;-89
2023/05/26 04:36:23;;;;;;;6.33;4.50;;;19.40;99.90;;;;;;6119239;23;20173;-90
2023/05/26 04:38:55;;;;;;;6.10;5.20;;;19.40;99.90;;;;;;6144363;23;20198;-91
2023/05/26 04:41:27;;;;;;;5.47;4.73;;;19.30;99.90;;;;;;6144581;23;20233;-90
2023/05/26 04:43:59;;;;;;;6.43;5.07;;;19.30;99.90;;;;;;6129115;23;20576;-90
2023/05/26 04:46:30;;;;;;;5.47;4.60;;;19.20;99.90;;;;;;6128990;23;20202;-90
2023/05/26 04:49:04;;;;;;;9.83;5.17;;;19.10;99.90;;;;;;6127871;23;20257;-90
2023/05/26 04:51:37;;;;;;;6.10;5.03;;;19.00;99.90;;;;;;6078958;23;20170;-91
2023/05/26 04:54:08;;;;;;;5.87;5.00;;;19.00;99.90;;;;;;6128181;23;20181;-90
2023/05/26 04:56:40;;;;;;;7.37;5.07;;;18.90;99.90;;;;;;6126351;23;20201;-90
2023/05/26 04:59:12;;;;;;;7.63;4.90;;;18.90;99.90;;;;;;6126515;23;20334;-90
2023/05/26 05:01:44;;;;;;;7.83;4.90;;;18.90;99.90;;;;;;6128709;23;20471;-90
2023/05/26 05:04:18;;;;;;;8.77;4.87;;;18.80;99.90;;;;;;6126947;23;20672;-92
2023/05/26 05:06:49;;;;;;;6.83;4.97;;;18.80;99.90;;;;;;6127410;23;20265;-90
2023/05/26 05:09:21;;;;;;;5.53;4.50;;;18.90;99.90;;;;;;6127150;23;20181;-89
2023/05/26 05:11:53;;;;;;;6.23;4.40;;;18.80;99.90;;;;;;6128386;23;20574;-90
2023/05/26 05:14:25;;;;;;;5.13;4.63;;;18.70;99.90;;;;;;6129519;23;20188;-90
2023/05/26 05:16:59;;;;;;;8.77;5.13;;;18.60;99.90;;;;;;6130156;23;20193;-91
2023/05/26 05:19:33;;;;;;;5.83;4.47;;;18.50;99.90;;;;;;6145178;23;20237;-90
2023/05/26 05:22:05;;;;;;;7.87;4.80;;;18.50;99.90;;;;;;6146140;23;20176;-90
2023/05/26 05:24:36;;;;;;;5.17;4.67;;;18.50;99.90;;;;;;6141437;23;20197;-91
2023/05/26 05:27:07;;;;;;;4.87;4.27;;;18.40;99.90;;;;;;6132197;23;20198;-92
2023/05/26 05:29:39;;;;;;;6.73;4.47;;;18.40;99.90;;;;;;6130332;23;20182;-90
2023/05/26 05:32:10;;;;;;;5.83;4.70;;;18.40;99.90;;;;;;6128678;23;20269;-90
2023/05/26 05:34:44;;;;;;;5.37;4.47;;;18.30;99.90;;;;;;6128976;23;20189;-89
2023/05/26 05:37:16;;;;;;;5.23;4.63;;;18.20;99.90;;;;;;6128542;23;20285;-90
2023/05/26 05:39:47;;;;;;;5.20;4.50;;;18.20;99.90;;;;;;6127689;23;20507;-89
2023/05/26 05:42:19;;;;;;;6.07;4.70;;;18.20;99.90;;;;;;6128401;23;20242;-90
2023/05/26 05:44:50;;;;;;;5.57;4.83;;;18.20;99.90;;;;;;6127916;23;20534;-90
2023/05/26 05:47:22;;;;;;;8.87;5.10;;;18.10;99.90;;;;;;6127933;23;20183;-90
2023/05/26 05:49:56;;;;;;;7.40;4.53;;;18.10;99.90;;;;;;6126918;23;20509;-91
2023/05/26 05:52:28;;;;;;;5.07;4.47;;;18.10;99.90;;;;;;6128291;23;20178;-91
2023/05/26 05:55:00;;;;;;;8.40;4.90;;;18.00;99.90;;;;;;6127755;23;20210;-90
2023/05/26 05:57:31;;;;;;;6.63;5.10;;;18.00;99.90;;;;;;6127907;23;20231;-90
2023/05/26 06:00:03;;;;;;;6.63;5.20;;;18.00;99.90;;;;;;6127759;23;20190;-90
2023/05/26 06:02:38;;;;;;;5.87;4.63;;;17.90;99.90;;;;;;6102924;23;20824;-90
2023/05/26 06:05:13;;;;;;;6.03;4.60;;;17.90;99.90;;;;;;6129040;23;20209;-89
2023/05/26 06:07:44;;;;;;;6.70;5.00;;;17.90;99.90;;;;;;6127165;23;20210;-89
2023/05/26 06:10:16;;;;;;;5.70;4.80;;;17.90;99.90;;;;;;6128154;23;20270;-88
2023/05/26 06:12:48;;;;;;;5.70;5.00;;;17.90;99.90;;;;;;6128214;23;20163;-89
2023/05/26 06:15:20;;;;;;;5.53;4.90;;;17.80;99.90;;;;;;6127702;23;20688;-90
2023/05/26 06:17:52;;;;;;;5.93;4.60;;;17.80;99.90;;;;;;6126778;23;20594;-89
2023/05/26 06:20:26;;;;;;;5.00;4.50;;;17.70;99.90;;;;;;6128291;23;20238;-90
2023/05/26 06:22:58;;;;;;;5.07;4.57;;;17.70;99.90;;;;;;6129075;23;20233;-96
2023/05/26 06:25:30;;;;;;;6.50;5.07;;;17.60;99.90;;;;;;6139589;23;20186;-91
2023/05/26 06:28:01;;;;;;;5.40;4.83;;;17.60;99.90;;;;;;6126896;23;20210;-90
2023/05/26 06:30:34;;;;;;;6.33;4.73;;;17.50;99.90;;;;;;6080169;23;20197;-91
2023/05/26 06:33:06;;;;;;;6.20;5.00;;;17.50;99.90;;;;;;6127675;23;20614;-89
2023/05/26 06:35:41;;;;;;;8.63;4.50;;;17.50;99.90;;;;;;6127912;23;20190;-89
2023/05/26 06:38:13;;;;;;;7.37;5.00;;;17.40;99.90;;;;;;6127057;23;20527;-90
2023/05/26 06:40:45;;;;;;;7.67;4.70;;;17.40;99.90;;;;;;6128014;23;20167;-89
2023/05/26 06:43:16;;;;;;;9.23;4.93;;;17.40;99.90;;;;;;6127539;23;20315;-89
2023/05/26 06:45:48;;;;;;;11.33;5.30;;;17.40;99.90;;;;;;6128640;23;20648;-90
2023/05/26 06:48:20;;;;;;;8.33;4.90;;;17.30;99.90;;;;;;6126432;23;20269;-90
2023/05/26 06:50:55;;;;;;;9.93;5.10;;;17.30;99.90;;;;;;6126759;23;20171;-91
2023/05/26 06:53:27;;;;;;;7.53;4.77;;;17.20;99.90;;;;;;6127730;23;20162;-91
2023/05/26 06:56:01;;;;;;;6.77;4.70;;;17.20;99.90;;;;;;6126837;23;20630;-90
2023/05/26 06:58:33;;;;;;;9.00;5.83;;;17.10;99.90;;;;;;6126631;23;20199;-89
2023/05/26 07:01:05;;;;;;;5.63;4.83;;;17.10;99.90;;;;;;6127904;23;20287;-89
2023/05/26 07:03:37;;;;;;;6.10;4.77;;;17.10;99.90;;;;;;6128946;23;20183;-89
2023/05/26 07:06:12;;;;;;;5.00;4.50;;;17.00;99.90;;;;;;6127731;23;20174;-91
2023/05/26 07:08:45;;;;;;;5.87;4.40;;;17.00;99.90;;;;;;6127388;23;20186;-91
2023/05/26 07:11:18;;;;;;;7.17;4.87;;;17.00;99.90;;;;;;6128240;23;20175;-89
2023/05/26 07:13:52;;;;;;;6.97;4.50;;;16.90;99.90;;;;;;6127755;23;20178;-90
2023/05/26 07:16:24;;;;;;;5.63;4.60;;;16.90;99.90;;;;;;6127979;23;20241;-89
2023/05/26 07:18:56;;;;;;;5.63;4.47;;;16.90;99.90;;;;;;6126809;23;20646;-90
2023/05/26 07:21:29;;;;;;;6.63;4.73;;;16.90;99.90;;;;;;6127781;23;20198;-90
2023/05/26 07:24:01;;;;;;;5.40;4.43;;;16.80;99.90;;;;;;6128537;23;20162;-90
2023/05/26 07:26:34;;;;;;;7.57;5.07;;;16.80;99.90;;;;;;6128477;23;20203;-90
2023/05/26 07:29:05;;;;;;;7.73;5.07;;;16.70;99.90;;;;;;6111438;23;20638;-89
2023/05/26 07:31:37;;;;;;;5.43;4.70;;;16.70;99.90;;;;;;6137578;23;20230;-89
2023/05/26 07:34:10;;;;;;;5.10;4.60;;;16.60;99.90;;;;;;6115700;23;20182;-90
2023/05/26 07:36:44;;;;;;;5.90;4.87;;;16.60;99.90;;;;;;6129046;23;20185;-89
2023/05/26 07:39:15;;;;;;;7.17;4.87;;;16.60;99.90;;;;;;6131675;23;20213;-89
2023/05/26 07:41:47;;;;;;;6.00;5.00;;;16.50;99.90;;;;;;6126890;23;20186;-90
2023/05/26 07:44:21;;;;;;;6.70;4.67;;;16.50;99.90;;;;;;6127177;23;20544;-89
2023/05/26 07:46:52;;;;;;;5.50;4.80;;;16.40;99.90;;;;;;6127435;23;20253;-89
2023/05/26 07:49:24;;;;;;;7.27;5.00;;;16.30;99.90;;;;;;6126267;23;20261;-90
2023/05/26 07:51:58;;;;;;;5.10;4.60;;;16.30;99.90;;;;;;6126636;23;20253;-90
2023/05/26 07:54:30;;;;;;;6.43;5.20;;;16.10;99.90;;;;;;6127480;23;20554;-90
2023/05/26 07:57:02;;;;;;;5.73;5.00;;;16.10;99.90;;;;;;6126228;23;20182;-90
2023/05/26 07:59:39;;;;;;;6.73;5.17;;;16.10;99.90;;;;;;6080416;23;20205;-90
2023/05/26 08:02:11;;;;;;;8.57;5.17;;;16.00;99.90;;;;;;6127969;23;20223;-90
2023/05/26 08:04:42;;;;;;;6.33;5.13;;;16.00;99.90;;;;;;6128412;23;20461;-90
2023/05/26 08:07:17;;;;;;;6.40;5.23;;;16.00;99.90;;;;;;6127490;23;20182;-90
2023/05/26 08:09:49;;;;;;;6.20;4.97;;;16.00;99.90;;;;;;6125128;23;20515;-90
2023/05/26 08:12:20;;;;;;;7.13;5.53;;;15.90;99.90;;;;;;6127746;23;20170;-89
2023/05/26 08:14:52;;;;;;;8.10;5.63;;;15.90;99.90;;;;;;6125972;23;20179;-90
2023/05/26 08:17:23;;;;;;;7.70;5.43;;;15.90;99.90;;;;;;6126869;23;20181;-89
2023/05/26 08:19:55;;;;;;;9.70;5.77;;;15.90;99.90;;;;;;6125616;23;20210;-89
2023/05/26 08:22:29;;;;;;;5.67;4.87;;;15.90;99.90;;;;;;6126298;23;20180;-90
2023/05/26 08:25:01;;;;;;;6.77;5.43;;;15.90;99.90;;;;;;6126591;23;20171;-90
2023/05/26 08:27:34;;;;;;;7.20;5.43;;;15.90;99.90;;;;;;6126914;23;20171;-89
2023/05/26 08:30:08;;;;;;;7.67;6.07;;;15.80;99.90;;;;;;6125901;23;20279;-90
2023/05/26 08:32:40;;;;;;;8.60;5.30;;;15.80;99.90;;;;;;6125742;23;20174;-90
2023/05/26 08:35:12;;;;;;;6.37;5.70;;;15.80;99.90;;;;;;6126607;23;20241;-87
2023/05/26 08:37:45;;;;;;;7.93;6.10;;;15.70;99.90;;;;;;6125477;23;20249;-90
2023/05/26 08:40:18;;;;;;;6.63;5.03;;;15.70;99.90;;;;;;6126350;23;20197;-90
2023/05/26 08:42:53;;;;;;;5.93;5.23;;;15.70;99.90;;;;;;6127269;23;20166;-90
2023/05/26 08:45:26;;;;;;;7.53;5.50;;;15.60;99.90;;;;;;6126997;23;20166;-89
2023/05/26 08:48:02;;;;;;;7.27;5.00;;;15.50;99.90;;;;;;6099716;23;20182;-90
2023/05/26 08:50:33;;;;;;;10.20;5.57;;;15.50;99.90;;;;;;6127012;23;20178;-89
2023/05/26 08:53:07;;;;;;;7.47;5.23;;;15.50;99.90;;;;;;6126866;23;20569;-90
2023/05/26 08:55:38;;;;;;;5.80;5.07;;;15.40;99.90;;;;;;6126825;23;20182;-89
2023/05/26 08:58:10;;;;;;;8.03;5.37;;;15.40;99.90;;;;;;6124917;23;20178;-89
2023/05/26 09:00:42;;;;;;;7.73;5.37;;;15.40;99.90;;;;;;6126826;23;20209;-90
2023/05/26 09:03:13;;;;;;;8.33;5.43;;;15.40;99.90;;;;;;6126936;23;20185;-90
2023/05/26 09:05:46;;;;;;;6.80;5.30;;;15.40;99.90;;;;;;6126298;23;20179;-89
2023/05/26 09:08:22;;;;;;;7.37;5.40;;;15.40;99.90;;;;;;6128344;23;20304;-89
2023/05/26 09:10:54;;;;;;;6.20;5.00;;;15.40;99.90;;;;;;6127428;23;20170;-89
2023/05/26 09:13:26;;;;;;;7.33;4.80;;;15.30;99.90;;;;;;6126426;23;20197;-89
2023/05/26 09:15:58;;;;;;;5.63;4.77;;;15.30;99.90;;;;;;6127611;23;20245;-89
2023/05/26 09:18:46;;;;;;;5.03;4.33;;;15.20;99.90;;;;;;6125933;23;20642;-90
2023/05/26 09:21:18;;;;;;;4.77;4.13;;;15.20;99.90;;;;;;6126909;23;20249;-90
2023/05/26 09:23:58;;;;;;;6.53;4.60;;;15.20;99.90;;;;;;6126509;23;20181;-90
2023/05/26 09:26:32;;;;;;;5.67;4.60;;;15.10;99.90;;;;;;6127329;23;20570;-89
2023/05/26 09:29:05;;;;;;;7.00;4.93;;;15.10;99.90;;;;;;6125926;23;20185;-90
2023/05/26 09:31:44;;;;;;;7.27;4.50;;;15.10;99.90;;;;;;6127226;23;20186;-90
2023/05/26 09:34:17;;;;;;;6.10;4.33;;;15.10;99.90;;;;;;6127152;23;20261;-90
2023/05/26 09:36:48;;;;;;;6.00;4.40;;;15.10;99.90;;;;;;6128270;23;20664;-90
2023/05/26 09:39:21;;;;;;;7.47;4.50;;;15.10;99.90;;;;;;6130625;23;20277;-89
2023/05/26 09:41:53;;;;;;;6.67;4.50;;;15.00;99.90;;;;;;6135875;23;20257;-90
2023/05/26 09:44:24;;;;;;;9.63;4.83;;;14.90;99.90;;;;;;6135483;23;20179;-89
2023/05/26 09:46:56;;;;;;;4.67;3.83;;;14.80;99.90;;;;;;6110251;23;20238;-89
2023/05/26 09:49:28;;;;;;;6.50;4.27;;;14.80;99.90;;;;;;6127870;23;20182;-89
2023/05/26 09:52:00;;;;;;;6.30;4.07;;;14.80;99.90;;;;;;6128522;23;20167;-90
2023/05/26 09:54:45;;;;;;;7.30;4.20;;;14.70;99.90;;;;;;6132304;23;20186;-90
2023/05/26 09:57:19;;;;;;;5.97;4.03;;;14.70;99.90;;;;;;6103871;23;20249;-89
2023/05/26 09:59:55;;;;;;;10.00;4.27;;;14.70;99.90;;;;;;6127076;23;20760;-89
2023/05/26 10:02:27;;;;;;;5.13;3.70;;;14.70;99.90;;;;;;6141344;23;20154;-90
2023/05/26 10:05:00;;;;;;;7.03;4.33;;;14.70;99.90;;;;;;6150223;23;20165;-89
2023/05/26 10:07:34;;;;;;;5.87;3.93;;;14.70;99.90;;;;;;6149256;23;20167;-89
2023/05/26 10:10:10;;;;;;;6.40;4.10;;;14.60;99.90;;;;;;6135785;23;20265;-90
2023/05/26 10:12:41;;;;;;;7.60;3.87;;;14.60;99.90;;;;;;6129328;23;20218;-90
2023/05/26 10:15:15;;;;;;;7.47;3.93;;;14.60;99.90;;;;;;6128192;23;20178;-89
2023/05/26 10:17:47;;;;;;;6.93;4.30;;;14.60;99.90;;;;;;6127702;23;20254;-89
2023/05/26 10:20:19;;;;;;;6.33;4.20;;;14.50;99.90;;;;;;6128532;23;20536;-90
2023/05/26 10:22:57;;;;;;;5.43;3.60;;;14.40;99.90;;;;;;6127753;23;20174;-88
2023/05/26 10:25:34;;;;;;;7.23;4.27;;;14.40;99.90;;;;;;6104256;23;20917;-88
2023/05/26 10:28:13;;;;;;;6.77;4.10;;;14.40;99.90;;;;;;6127261;23;20542;-89
2023/05/26 10:30:45;;;;;;;5.63;4.17;;;14.40;99.90;;;;;;6128396;23;20198;-90
2023/05/26 10:33:17;;;;;;;5.10;3.83;;;14.40;99.90;;;;;;6130265;23;20555;-89
2023/05/26 10:35:59;;;;;;;5.23;3.77;;;14.40;99.90;;;;;;6127813;23;20274;-89
2023/05/26 10:38:37;;;;;;;7.53;4.10;;;14.40;99.90;;;;;;6127908;23;20601;-89
2023/05/26 10:41:30;;;;;;;4.90;4.00;;;14.30;99.90;;;;;;6127849;23;20198;-89
2023/05/26 10:44:03;;;;;;;6.53;4.20;;;14.30;99.90;;;;;;6127716;23;20520;-89
2023/05/26 10:46:41;;;;;;;5.07;3.87;;;14.20;99.90;;;;;;6127462;23;20178;-89
2023/05/26 10:49:22;;;;;;;5.03;3.77;;;14.20;99.90;;;;;;6103013;23;20210;-89
2023/05/26 10:51:56;;;;;;;6.63;4.50;;;14.10;99.90;;;;;;6128104;23;20181;-89
2023/05/26 10:54:27;;;;;;;5.60;3.87;;;14.10;99.90;;;;;;6102532;23;20515;-89
2023/05/26 10:57:02;;;;;;;7.77;4.27;;;14.10;99.90;;;;;;6127431;23;20575;-89
2023/05/26 10:59:35;;;;;;;7.77;4.30;;;14.00;99.90;;;;;;6127191;23;20181;-89
2023/05/26 11:02:07;;;;;;;6.13;4.30;;;14.00;99.90;;;;;;6129112;23;20197;-89
2023/05/26 11:04:43;;;;;;;5.73;4.00;;;14.00;99.90;;;;;;6130731;23;20166;-88
2023/05/26 11:07:22;;;;;;;7.07;3.73;;;14.00;99.90;;;;;;6130016;23;20170;-88
2023/05/26 11:10:02;;;;;;;5.67;3.93;;;13.90;99.90;;;;;;6128929;23;20174;-89
2023/05/26 11:12:51;;;;;;;6.70;4.20;;;13.90;99.90;;;;;;6129207;23;20257;-90
2023/05/26 11:15:30;;;;;;;5.43;3.77;;;13.90;99.90;;;;;;6132219;23;20231;-89
2023/05/26 11:18:05;;;;;;;6.17;4.20;;;13.80;99.90;;;;;;6130854;23;20560;-88
2023/05/26 11:20:37;;;;;;;4.83;4.00;;;13.70;99.90;;;;;;6127418;23;20228;-90
2023/05/26 11:23:09;;;;;;;6.03;4.40;;;13.70;99.90;;;;;;6127630;23;20515;-89
2023/05/26 11:25:48;;;;;;;7.93;4.27;;;13.70;99.90;;;;;;6126873;23;20178;-90
2023/05/26 11:28:22;;;;;;;6.90;4.30;;;13.60;99.90;;;;;;6101309;23;20222;-89
2023/05/26 11:30:54;;;;;;;6.57;4.40;;;13.60;99.90;;;;;;6127112;23;20204;-88
2023/05/26 11:33:25;;;;;;;8.57;4.53;;;13.50;99.90;;;;;;6137125;23;20182;-88
2023/05/26 11:35:57;;;;;;;6.23;4.20;;;13.50;99.90;;;;;;6128505;23;20186;-89
2023/05/26 11:38:29;;;;;;;7.20;4.70;;;13.50;99.90;;;;;;6102961;23;20257;-89
2023/05/26 11:41:05;;;;;;;5.87;4.23;;;13.50;99.90;;;;;;6128686;23;20609;-89
2023/05/26 11:43:40;;;;;;;6.97;4.60;;;13.50;99.90;;;;;;6105018;23;20202;-88
2023/05/26 11:46:15;;;;;;;6.83;4.20;;;13.50;99.90;;;;;;6130049;23;20166;-88
2023/05/26 11:48:48;;;;;;;5.33;4.07;;;13.50;99.90;;;;;;6128474;23;20197;-89
2023/05/26 11:51:20;;;;;;;8.47;4.63;;;13.50;99.90;;;;;;6128545;23;20212;-89
2023/05/26 11:53:56;;;;;;;5.33;4.03;;;13.50;99.90;;;;;;6132122;23;20174;-89
2023/05/26 11:56:35;;;;;;;5.47;4.40;;;13.50;99.90;;;;;;6141171;23;20229;-89
2023/05/26 11:59:08;;;;;;;8.03;4.67;;;13.40;99.90;;;;;;6150469;23;20182;-89
2023/05/26 12:01:39;;;;;;;8.00;5.17;;;13.30;99.90;;;;;;6139675;23;20197;-88
2023/05/26 12:04:11;;;;;;;9.00;5.23;;;13.30;99.90;;;;;;6134133;23;20181;-88
2023/05/26 12:06:43;;;;;;;6.90;4.70;;;13.30;99.90;;;;;;6128469;23;20198;-88
2023/05/26 12:09:22;;;;;;;8.07;5.00;;;13.20;99.90;;;;;;6126934;23;20653;-87
2023/05/26 12:11:54;;;;;;;5.77;4.97;;;13.20;99.90;;;;;;6128827;23;20202;-88
2023/05/26 12:14:29;;;;;;;7.30;5.17;;;13.20;99.90;;;;;;6127836;23;20183;-88
2023/05/26 12:17:01;;;;;;;6.43;5.07;;;13.20;99.90;;;;;;6127863;23;20174;-88
2023/05/26 12:19:34;;;;;;;9.20;4.97;;;13.10;99.90;;;;;;6125688;23;20509;-88
2023/05/26 12:22:07;;;;;;;7.10;4.90;;;13.10;99.90;;;;;;6127619;23;20175;-89
2023/05/26 12:24:39;;;;;;;6.67;5.40;;;13.10;99.90;;;;;;6101853;23;20249;-88
2023/05/26 12:27:11;;;;;;;6.93;5.57;;;13.10;99.90;;;;;;6126899;23;20174;-89
2023/05/26 12:29:46;;;;;;;8.60;5.37;;;13.10;99.90;;;;;;6126066;23;20192;-89
2023/05/26 12:32:17;;;;;;;8.83;5.67;;;13.00;99.90;;;;;;6125825;23;20288;-88
2023/05/26 12:34:48;;;;;;;7.00;5.23;;;13.00;99.90;;;;;;6126621;23;20189;-88
2023/05/26 12:37:20;;;;;;;7.60;5.07;;;13.10;99.90;;;;;;6126978;23;20178;-87
2023/05/26 12:39:52;;;;;;;6.83;5.00;;;13.10;99.90;;;;;;6125373;23;20194;-88
2023/05/26 12:42:23;;;;;;;8.37;5.27;;;13.10;99.90;;;;;;6126330;23;20166;-88
2023/05/26 12:44:58;;;;;;;5.97;5.30;;;13.10;99.90;;;;;;6101518;23;20171;-89
2023/05/26 12:47:30;;;;;;;5.30;4.77;;;13.10;99.90;;;;;;6101398;23;20186;-88
2023/05/26 12:50:01;;;;;;;6.50;5.30;;;13.10;99.90;;;;;;6125887;23;20163;-89
2023/05/26 12:52:33;;;;;;;10.30;5.53;;;13.20;99.90;;;;;;6126706;23;20649;-89
2023/05/26 12:55:05;;;;;;;7.83;5.70;;;13.20;99.90;;;;;;6126559;23;20221;-88
2023/05/26 12:57:39;;;;;;;6.37;5.53;;;13.20;99.90;;;;;;6100971;23;20172;-92
2023/05/26 13:00:15;;;;;;;6.70;5.30;;;13.20;99.90;;;;;;6127205;23;20170;-89
2023/05/26 13:02:47;;;;;;;9.93;5.63;;;13.10;99.90;;;;;;6127405;23;20170;-89
2023/05/26 13:05:20;;;;;;;6.93;5.97;;;13.10;99.90;;;;;;6125870;23;20239;-87
2023/05/26 13:07:54;;;;;;;7.40;5.90;;;13.10;99.90;;;;;;6126146;23;20206;-89
2023/05/26 13:10:26;;;;;;;8.93;5.97;;;13.10;99.90;;;;;;6126927;23;20175;-87
2023/05/26 13:12:58;;;;;;;8.17;6.17;;;13.10;99.90;;;;;;6126175;23;20179;-89
2023/05/26 13:15:32;;;;;;;9.77;6.10;;;13.10;99.90;;;;;;6126625;23;20170;-89
2023/05/26 13:18:03;;;;;;;10.60;5.90;;;13.20;99.90;;;;;;6124928;23;20174;-87
2023/05/26 13:20:35;;;;;;;9.33;5.93;;;13.20;99.90;;;;;;6126483;23;20179;-90
2023/05/26 13:23:07;;;;;;;6.53;5.40;;;13.20;99.90;;;;;;6126517;23;20274;-90